Pine Mountain, Georgia
Current Conditions -  °F | °C
As of 6:55 PM on Friday 19 Dec 2014 (Local Time) from KLGC Reporting Station
Overcast Overcast  
Wind Chill: 53°   Ceiling: 11000
Heat Index: 53°   Visibility: 10mi
Dew Point: 42°   Wind: 0mph
Humidity: 66%   Direction: NA
Pressure: 30.14"   Gusts: NA
Location:  32.86°N, 84.85°W
Report Text: KLGC 192355Z AUTO 00000KT 10SM OVC110 12/06 A3014 RMK AO2 T01160055 10142 20110
Loading
Personal Weather Stations






























Interactive Weather Map New forecast layout! Learn more

10-Day Weather Forecast

Advertisements
Track Severe Weather on mobile